sensor_id;sensor_type;location;lat;lon;timestamp;pressure;altitude;pressure_sealevel;temperature
12854;BMP180;6495;51.808;7.478;2023-07-29T00:02:25;100304.00;;;21.60
12854;BMP180;6495;51.808;7.478;2023-07-29T00:04:54;100311.00;;;21.60
12854;BMP180;6495;51.808;7.478;2023-07-29T00:07:22;100302.00;;;21.60
12854;BMP180;6495;51.808;7.478;2023-07-29T00:09:50;100299.00;;;21.60
12854;BMP180;6495;51.808;7.478;2023-07-29T00:12:19;100288.00;;;21.50
12854;BMP180;6495;51.808;7.478;2023-07-29T00:14:48;100283.00;;;21.50
12854;BMP180;6495;51.808;7.478;2023-07-29T00:17:16;100288.00;;;21.50
12854;BMP180;6495;51.808;7.478;2023-07-29T00:19:44;100288.00;;;21.40
12854;BMP180;6495;51.808;7.478;2023-07-29T00:22:12;100291.00;;;21.40
12854;BMP180;6495;51.808;7.478;2023-07-29T00:24:40;100286.00;;;21.40
12854;BMP180;6495;51.808;7.478;2023-07-29T00:27:09;100288.00;;;21.40
12854;BMP180;6495;51.808;7.478;2023-07-29T00:29:37;100285.00;;;21.50
12854;BMP180;6495;51.808;7.478;2023-07-29T00:32:07;100278.00;;;21.40
12854;BMP180;6495;51.808;7.478;2023-07-29T00:34:35;100293.00;;;21.40
12854;BMP180;6495;51.808;7.478;2023-07-29T00:37:03;100293.00;;;21.30
12854;BMP180;6495;51.808;7.478;2023-07-29T00:39:32;100289.00;;;21.20
12854;BMP180;6495;51.808;7.478;2023-07-29T00:42:01;100286.00;;;21.20
12854;BMP180;6495;51.808;7.478;2023-07-29T00:44:29;100287.00;;;21.20
12854;BMP180;6495;51.808;7.478;2023-07-29T00:47:02;100284.00;;;21.20
12854;BMP180;6495;51.808;7.478;2023-07-29T00:49:32;100288.00;;;21.20
12854;BMP180;6495;51.808;7.478;2023-07-29T00:52:02;100299.00;;;21.20
12854;BMP180;6495;51.808;7.478;2023-07-29T00:54:30;100292.00;;;21.20
12854;BMP180;6495;51.808;7.478;2023-07-29T00:56:58;100296.00;;;21.20
12854;BMP180;6495;51.808;7.478;2023-07-29T00:59:27;100300.00;;;21.20
12854;BMP180;6495;51.808;7.478;2023-07-29T01:01:58;100297.00;;;21.20
12854;BMP180;6495;51.808;7.478;2023-07-29T01:04:26;100281.00;;;21.20
12854;BMP180;6495;51.808;7.478;2023-07-29T01:07:07;100285.00;;;21.10
12854;BMP180;6495;51.808;7.478;2023-07-29T01:09:48;100288.00;;;21.10
12854;BMP180;6495;51.808;7.478;2023-07-29T01:12:24;100284.00;;;21.10
12854;BMP180;6495;51.808;7.478;2023-07-29T01:15:01;100278.00;;;21.10
12854;BMP180;6495;51.808;7.478;2023-07-29T01:17:43;100273.00;;;21.10
12854;BMP180;6495;51.808;7.478;2023-07-29T01:20:15;100264.00;;;21.10
12854;BMP180;6495;51.808;7.478;2023-07-29T01:22:46;100267.00;;;21.00
12854;BMP180;6495;51.808;7.478;2023-07-29T01:25:16;100265.00;;;20.90
12854;BMP180;6495;51.808;7.478;2023-07-29T01:27:48;100257.00;;;20.90
12854;BMP180;6495;51.808;7.478;2023-07-29T01:30:19;100270.00;;;20.90
12854;BMP180;6495;51.808;7.478;2023-07-29T01:32:54;100265.00;;;21.00
12854;BMP180;6495;51.808;7.478;2023-07-29T01:35:35;100264.00;;;21.00
12854;BMP180;6495;51.808;7.478;2023-07-29T01:38:09;100267.00;;;21.00
12854;BMP180;6495;51.808;7.478;2023-07-29T01:40:43;100265.00;;;21.00
12854;BMP180;6495;51.808;7.478;2023-07-29T01:43:12;100251.00;;;21.00
12854;BMP180;6495;51.808;7.478;2023-07-29T01:45:40;100243.00;;;21.00
12854;BMP180;6495;51.808;7.478;2023-07-29T01:48:09;100243.00;;;21.00
12854;BMP180;6495;51.808;7.478;2023-07-29T01:50:37;100252.00;;;21.00
12854;BMP180;6495;51.808;7.478;2023-07-29T01:53:05;100245.00;;;21.00
12854;BMP180;6495;51.808;7.478;2023-07-29T01:55:34;100246.00;;;21.00
12854;BMP180;6495;51.808;7.478;2023-07-29T01:58:03;100247.00;;;21.00
12854;BMP180;6495;51.808;7.478;2023-07-29T02:00:34;100245.00;;;20.90
12854;BMP180;6495;51.808;7.478;2023-07-29T02:03:02;100243.00;;;20.90
12854;BMP180;6495;51.808;7.478;2023-07-29T02:05:31;100246.00;;;20.90
12854;BMP180;6495;51.808;7.478;2023-07-29T02:07:59;100236.00;;;20.90
12854;BMP180;6495;51.808;7.478;2023-07-29T02:10:27;100233.00;;;20.90
12854;BMP180;6495;51.808;7.478;2023-07-29T02:12:55;100229.00;;;20.90
12854;BMP180;6495;51.808;7.478;2023-07-29T02:15:25;100224.00;;;20.90
12854;BMP180;6495;51.808;7.478;2023-07-29T02:17:53;100221.00;;;20.90
12854;BMP180;6495;51.808;7.478;2023-07-29T02:20:21;100228.00;;;20.90
12854;BMP180;6495;51.808;7.478;2023-07-29T02:22:50;100215.00;;;20.80
12854;BMP180;6495;51.808;7.478;2023-07-29T02:25:19;100215.00;;;20.80
12854;BMP180;6495;51.808;7.478;2023-07-29T02:27:47;100210.00;;;20.80
12854;BMP180;6495;51.808;7.478;2023-07-29T02:30:15;100208.00;;;20.80
12854;BMP180;6495;51.808;7.478;2023-07-29T02:32:45;100216.00;;;20.90
12854;BMP180;6495;51.808;7.478;2023-07-29T02:35:13;100209.00;;;20.90
12854;BMP180;6495;51.808;7.478;2023-07-29T02:37:41;100210.00;;;20.90
12854;BMP180;6495;51.808;7.478;2023-07-29T02:40:11;100213.00;;;20.90
12854;BMP180;6495;51.808;7.478;2023-07-29T02:42:39;100211.00;;;20.90
12854;BMP180;6495;51.808;7.478;2023-07-29T02:45:08;100212.00;;;20.90
12854;BMP180;6495;51.808;7.478;2023-07-29T02:47:38;100216.00;;;20.90
12854;BMP180;6495;51.808;7.478;2023-07-29T02:50:08;100211.00;;;20.90
12854;BMP180;6495;51.808;7.478;2023-07-29T02:52:37;100204.00;;;20.90
12854;BMP180;6495;51.808;7.478;2023-07-29T02:55:06;100195.00;;;20.80
12854;BMP180;6495;51.808;7.478;2023-07-29T02:57:34;100195.00;;;20.80
12854;BMP180;6495;51.808;7.478;2023-07-29T03:00:06;100202.00;;;20.70
12854;BMP180;6495;51.808;7.478;2023-07-29T03:02:35;100208.00;;;20.70
12854;BMP180;6495;51.808;7.478;2023-07-29T03:05:04;100214.00;;;20.70
12854;BMP180;6495;51.808;7.478;2023-07-29T03:07:33;100206.00;;;20.70
12854;BMP180;6495;51.808;7.478;2023-07-29T03:10:02;100203.00;;;20.70
12854;BMP180;6495;51.808;7.478;2023-07-29T03:12:30;100203.00;;;20.70
12854;BMP180;6495;51.808;7.478;2023-07-29T03:14:58;100201.00;;;20.80
12854;BMP180;6495;51.808;7.478;2023-07-29T03:17:27;100207.00;;;20.80
12854;BMP180;6495;51.808;7.478;2023-07-29T03:19:56;100209.00;;;20.80
12854;BMP180;6495;51.808;7.478;2023-07-29T03:22:24;100210.00;;;20.80
12854;BMP180;6495;51.808;7.478;2023-07-29T03:24:53;100210.00;;;20.80
12854;BMP180;6495;51.808;7.478;2023-07-29T03:27:21;100222.00;;;20.80
12854;BMP180;6495;51.808;7.478;2023-07-29T03:29:49;100216.00;;;20.80
12854;BMP180;6495;51.808;7.478;2023-07-29T03:32:18;100221.00;;;20.70
12854;BMP180;6495;51.808;7.478;2023-07-29T03:34:46;100223.00;;;20.70
12854;BMP180;6495;51.808;7.478;2023-07-29T03:37:14;100230.00;;;20.70
12854;BMP180;6495;51.808;7.478;2023-07-29T03:39:43;100225.00;;;20.70
12854;BMP180;6495;51.808;7.478;2023-07-29T03:42:13;100218.00;;;20.70
12854;BMP180;6495;51.808;7.478;2023-07-29T03:44:41;100219.00;;;20.70
12854;BMP180;6495;51.808;7.478;2023-07-29T03:47:09;100213.00;;;20.70
12854;BMP180;6495;51.808;7.478;2023-07-29T03:49:39;100211.00;;;20.70
12854;BMP180;6495;51.808;7.478;2023-07-29T03:52:08;100207.00;;;20.70
12854;BMP180;6495;51.808;7.478;2023-07-29T03:54:36;100207.00;;;20.70
12854;BMP180;6495;51.808;7.478;2023-07-29T03:57:05;100205.00;;;20.70
12854;BMP180;6495;51.808;7.478;2023-07-29T03:59:34;100202.00;;;20.70
12854;BMP180;6495;51.808;7.478;2023-07-29T04:02:03;100199.00;;;20.70
12854;BMP180;6495;51.808;7.478;2023-07-29T04:04:32;100196.00;;;20.70
12854;BMP180;6495;51.808;7.478;2023-07-29T04:07:00;100197.00;;;20.70
12854;BMP180;6495;51.808;7.478;2023-07-29T04:09:28;100202.00;;;20.70
12854;BMP180;6495;51.808;7.478;2023-07-29T04:11:56;100199.00;;;20.80
12854;BMP180;6495;51.808;7.478;2023-07-29T04:14:24;100200.00;;;20.80
12854;BMP180;6495;51.808;7.478;2023-07-29T04:16:54;100202.00;;;20.80
12854;BMP180;6495;51.808;7.478;2023-07-29T04:19:22;100203.00;;;20.80
12854;BMP180;6495;51.808;7.478;2023-07-29T04:21:50;100199.00;;;20.80
12854;BMP180;6495;51.808;7.478;2023-07-29T04:24:18;100194.00;;;20.80
12854;BMP180;6495;51.808;7.478;2023-07-29T04:26:47;100195.00;;;20.90
12854;BMP180;6495;51.808;7.478;2023-07-29T04:29:15;100197.00;;;20.90
12854;BMP180;6495;51.808;7.478;2023-07-29T04:31:43;100182.00;;;20.90
12854;BMP180;6495;51.808;7.478;2023-07-29T04:34:12;100177.00;;;20.90
12854;BMP180;6495;51.808;7.478;2023-07-29T04:36:41;100166.00;;;20.90
12854;BMP180;6495;51.808;7.478;2023-07-29T04:39:09;100172.00;;;20.90
12854;BMP180;6495;51.808;7.478;2023-07-29T04:41:37;100165.00;;;20.90
12854;BMP180;6495;51.808;7.478;2023-07-29T04:44:05;100173.00;;;20.90
12854;BMP180;6495;51.808;7.478;2023-07-29T04:46:33;100172.00;;;21.00
12854;BMP180;6495;51.808;7.478;2023-07-29T04:49:02;100171.00;;;21.00
12854;BMP180;6495;51.808;7.478;2023-07-29T04:51:32;100166.00;;;21.00
12854;BMP180;6495;51.808;7.478;2023-07-29T04:54:00;100176.00;;;21.00
12854;BMP180;6495;51.808;7.478;2023-07-29T04:56:28;100172.00;;;21.00
12854;BMP180;6495;51.808;7.478;2023-07-29T04:58:56;100166.00;;;21.00
12854;BMP180;6495;51.808;7.478;2023-07-29T05:01:24;100162.00;;;21.00
12854;BMP180;6495;51.808;7.478;2023-07-29T05:03:53;100168.00;;;20.90
12854;BMP180;6495;51.808;7.478;2023-07-29T05:06:21;100168.00;;;21.00
12854;BMP180;6495;51.808;7.478;2023-07-29T05:08:51;100174.00;;;21.00
12854;BMP180;6495;51.808;7.478;2023-07-29T05:11:19;100193.00;;;21.00
12854;BMP180;6495;51.808;7.478;2023-07-29T05:13:47;100204.00;;;21.00
12854;BMP180;6495;51.808;7.478;2023-07-29T05:16:15;100201.00;;;21.00
12854;BMP180;6495;51.808;7.478;2023-07-29T05:18:44;100209.00;;;21.00
12854;BMP180;6495;51.808;7.478;2023-07-29T05:21:12;100212.00;;;21.00
12854;BMP180;6495;51.808;7.478;2023-07-29T05:23:41;100211.00;;;21.00
12854;BMP180;6495;51.808;7.478;2023-07-29T05:26:10;100209.00;;;21.00
12854;BMP180;6495;51.808;7.478;2023-07-29T05:28:38;100222.00;;;21.00
12854;BMP180;6495;51.808;7.478;2023-07-29T05:31:07;100221.00;;;21.00
12854;BMP180;6495;51.808;7.478;2023-07-29T05:33:35;100217.00;;;21.00
12854;BMP180;6495;51.808;7.478;2023-07-29T05:36:06;100218.00;;;20.90
12854;BMP180;6495;51.808;7.478;2023-07-29T05:38:34;100207.00;;;20.90
12854;BMP180;6495;51.808;7.478;2023-07-29T05:41:02;100188.00;;;20.90
12854;BMP180;6495;51.808;7.478;2023-07-29T05:43:32;100175.00;;;20.90
12854;BMP180;6495;51.808;7.478;2023-07-29T05:46:00;100176.00;;;20.90
12854;BMP180;6495;51.808;7.478;2023-07-29T05:48:28;100169.00;;;20.90
12854;BMP180;6495;51.808;7.478;2023-07-29T05:50:56;100167.00;;;20.90
12854;BMP180;6495;51.808;7.478;2023-07-29T05:53:25;100184.00;;;21.00
12854;BMP180;6495;51.808;7.478;2023-07-29T05:55:53;100181.00;;;21.00
12854;BMP180;6495;51.808;7.478;2023-07-29T05:58:21;100185.00;;;21.00
12854;BMP180;6495;51.808;7.478;2023-07-29T06:00:51;100201.00;;;21.00
12854;BMP180;6495;51.808;7.478;2023-07-29T06:03:22;100220.00;;;21.00
12854;BMP180;6495;51.808;7.478;2023-07-29T06:05:51;100224.00;;;21.00
12854;BMP180;6495;51.808;7.478;2023-07-29T06:08:21;100234.00;;;21.00
12854;BMP180;6495;51.808;7.478;2023-07-29T06:10:49;100247.00;;;21.10
12854;BMP180;6495;51.808;7.478;2023-07-29T06:13:17;100237.00;;;21.00
12854;BMP180;6495;51.808;7.478;2023-07-29T06:15:45;100242.00;;;21.00
12854;BMP180;6495;51.808;7.478;2023-07-29T06:18:15;100245.00;;;21.00
12854;BMP180;6495;51.808;7.478;2023-07-29T06:20:43;100239.00;;;21.00
12854;BMP180;6495;51.808;7.478;2023-07-29T06:23:11;100248.00;;;21.00
12854;BMP180;6495;51.808;7.478;2023-07-29T06:25:39;100244.00;;;21.00
12854;BMP180;6495;51.808;7.478;2023-07-29T06:28:09;100246.00;;;20.90
12854;BMP180;6495;51.808;7.478;2023-07-29T06:30:37;100243.00;;;20.90
12854;BMP180;6495;51.808;7.478;2023-07-29T06:33:06;100255.00;;;20.90
12854;BMP180;6495;51.808;7.478;2023-07-29T06:35:35;100257.00;;;20.90
12854;BMP180;6495;51.808;7.478;2023-07-29T06:38:03;100263.00;;;20.90
12854;BMP180;6495;51.808;7.478;2023-07-29T06:40:31;100256.00;;;20.90
12854;BMP180;6495;51.808;7.478;2023-07-29T06:42:59;100261.00;;;20.90
12854;BMP180;6495;51.808;7.478;2023-07-29T06:45:27;100272.00;;;21.00
12854;BMP180;6495;51.808;7.478;2023-07-29T06:47:56;100279.00;;;21.00
12854;BMP180;6495;51.808;7.478;2023-07-29T06:50:24;100278.00;;;20.90
12854;BMP180;6495;51.808;7.478;2023-07-29T06:52:53;100281.00;;;20.90
12854;BMP180;6495;51.808;7.478;2023-07-29T06:55:21;100281.00;;;20.90
12854;BMP180;6495;51.808;7.478;2023-07-29T06:57:50;100291.00;;;20.90
12854;BMP180;6495;51.808;7.478;2023-07-29T07:00:18;100293.00;;;20.90
12854;BMP180;6495;51.808;7.478;2023-07-29T07:02:46;100294.00;;;20.90
12854;BMP180;6495;51.808;7.478;2023-07-29T07:05:14;100306.00;;;20.90
12854;BMP180;6495;51.808;7.478;2023-07-29T07:07:43;100306.00;;;20.90
12854;BMP180;6495;51.808;7.478;2023-07-29T07:10:13;100301.00;;;20.90
12854;BMP180;6495;51.808;7.478;2023-07-29T07:12:41;100291.00;;;20.90
12854;BMP180;6495;51.808;7.478;2023-07-29T07:15:10;100292.00;;;21.00
12854;BMP180;6495;51.808;7.478;2023-07-29T07:17:38;100292.00;;;21.00
12854;BMP180;6495;51.808;7.478;2023-07-29T07:20:07;100298.00;;;21.00
12854;BMP180;6495;51.808;7.478;2023-07-29T07:22:35;100300.00;;;21.00
12854;BMP180;6495;51.808;7.478;2023-07-29T07:25:04;100298.00;;;21.00
12854;BMP180;6495;51.808;7.478;2023-07-29T07:27:36;100303.00;;;21.10
12854;BMP180;6495;51.808;7.478;2023-07-29T07:30:06;100295.00;;;21.00
12854;BMP180;6495;51.808;7.478;2023-07-29T07:32:35;100306.00;;;21.10
12854;BMP180;6495;51.808;7.478;2023-07-29T07:35:03;100312.00;;;21.10
12854;BMP180;6495;51.808;7.478;2023-07-29T07:37:31;100308.00;;;21.10
12854;BMP180;6495;51.808;7.478;2023-07-29T07:40:00;100302.00;;;21.10
12854;BMP180;6495;51.808;7.478;2023-07-29T07:42:28;100296.00;;;21.10
12854;BMP180;6495;51.808;7.478;2023-07-29T07:44:57;100295.00;;;21.20
12854;BMP180;6495;51.808;7.478;2023-07-29T07:47:25;100295.00;;;21.20
12854;BMP180;6495;51.808;7.478;2023-07-29T07:49:53;100298.00;;;21.20
12854;BMP180;6495;51.808;7.478;2023-07-29T07:52:22;100297.00;;;21.20
12854;BMP180;6495;51.808;7.478;2023-07-29T07:54:52;100303.00;;;21.30
12854;BMP180;6495;51.808;7.478;2023-07-29T07:57:21;100309.00;;;21.40
12854;BMP180;6495;51.808;7.478;2023-07-29T07:59:49;100299.00;;;21.40
12854;BMP180;6495;51.808;7.478;2023-07-29T08:02:20;100300.00;;;21.50
12854;BMP180;6495;51.808;7.478;2023-07-29T08:04:49;100298.00;;;21.60
12854;BMP180;6495;51.808;7.478;2023-07-29T08:07:17;100297.00;;;21.60
12854;BMP180;6495;51.808;7.478;2023-07-29T08:09:45;100297.00;;;21.60
12854;BMP180;6495;51.808;7.478;2023-07-29T08:12:13;100303.00;;;21.70
12854;BMP180;6495;51.808;7.478;2023-07-29T08:14:46;100305.00;;;21.80
12854;BMP180;6495;51.808;7.478;2023-07-29T08:17:15;100293.00;;;21.90
12854;BMP180;6495;51.808;7.478;2023-07-29T08:19:45;100298.00;;;21.90
12854;BMP180;6495;51.808;7.478;2023-07-29T08:22:13;100296.00;;;22.00
12854;BMP180;6495;51.808;7.478;2023-07-29T08:24:41;100291.00;;;22.10
12854;BMP180;6495;51.808;7.478;2023-07-29T08:27:09;100291.00;;;22.20
12854;BMP180;6495;51.808;7.478;2023-07-29T08:29:37;100287.00;;;22.30
12854;BMP180;6495;51.808;7.478;2023-07-29T08:32:06;100286.00;;;22.30
12854;BMP180;6495;51.808;7.478;2023-07-29T08:34:34;100292.00;;;22.50
12854;BMP180;6495;51.808;7.478;2023-07-29T08:37:04;100278.00;;;22.60
12854;BMP180;6495;51.808;7.478;2023-07-29T08:39:32;100284.00;;;22.60
12854;BMP180;6495;51.808;7.478;2023-07-29T08:42:03;100285.00;;;22.70
12854;BMP180;6495;51.808;7.478;2023-07-29T08:44:40;100292.00;;;22.80
12854;BMP180;6495;51.808;7.478;2023-07-29T08:47:08;100287.00;;;22.90
12854;BMP180;6495;51.808;7.478;2023-07-29T08:49:37;100289.00;;;22.90
12854;BMP180;6495;51.808;7.478;2023-07-29T08:52:09;100288.00;;;23.00
12854;BMP180;6495;51.808;7.478;2023-07-29T08:54:37;100293.00;;;23.10
12854;BMP180;6495;51.808;7.478;2023-07-29T08:57:06;100304.00;;;23.20
12854;BMP180;6495;51.808;7.478;2023-07-29T08:59:35;100305.00;;;23.20
12854;BMP180;6495;51.808;7.478;2023-07-29T09:02:03;100295.00;;;23.20
12854;BMP180;6495;51.808;7.478;2023-07-29T09:04:31;100300.00;;;23.30
12854;BMP180;6495;51.808;7.478;2023-07-29T09:07:00;100304.00;;;23.30
12854;BMP180;6495;51.808;7.478;2023-07-29T09:09:30;100296.00;;;23.40
12854;BMP180;6495;51.808;7.478;2023-07-29T09:11:59;100307.00;;;23.50
12854;BMP180;6495;51.808;7.478;2023-07-29T09:14:28;100308.00;;;23.60
12854;BMP180;6495;51.808;7.478;2023-07-29T09:16:56;100303.00;;;23.70
12854;BMP180;6495;51.808;7.478;2023-07-29T09:19:25;100309.00;;;23.80
12854;BMP180;6495;51.808;7.478;2023-07-29T09:21:54;100312.00;;;23.80
12854;BMP180;6495;51.808;7.478;2023-07-29T09:24:22;100300.00;;;23.80
12854;BMP180;6495;51.808;7.478;2023-07-29T09:26:52;100296.00;;;23.90
12854;BMP180;6495;51.808;7.478;2023-07-29T09:29:23;100305.00;;;24.00
12854;BMP180;6495;51.808;7.478;2023-07-29T09:31:51;100305.00;;;24.10
12854;BMP180;6495;51.808;7.478;2023-07-29T09:34:20;100304.00;;;24.20
12854;BMP180;6495;51.808;7.478;2023-07-29T09:36:50;100305.00;;;24.30
12854;BMP180;6495;51.808;7.478;2023-07-29T09:39:23;100301.00;;;24.50
12854;BMP180;6495;51.808;7.478;2023-07-29T09:41:53;100305.00;;;24.50
12854;BMP180;6495;51.808;7.478;2023-07-29T09:44:21;100305.00;;;24.60
12854;BMP180;6495;51.808;7.478;2023-07-29T09:46:50;100310.00;;;24.70
12854;BMP180;6495;51.808;7.478;2023-07-29T09:49:18;100307.00;;;24.70
12854;BMP180;6495;51.808;7.478;2023-07-29T09:51:47;100306.00;;;24.70
12854;BMP180;6495;51.808;7.478;2023-07-29T09:54:17;100304.00;;;24.70
12854;BMP180;6495;51.808;7.478;2023-07-29T09:56:45;100303.00;;;24.80
12854;BMP180;6495;51.808;7.478;2023-07-29T09:59:19;100308.00;;;24.80
12854;BMP180;6495;51.808;7.478;2023-07-29T10:01:47;100315.00;;;24.90
12854;BMP180;6495;51.808;7.478;2023-07-29T10:04:17;100305.00;;;25.00
12854;BMP180;6495;51.808;7.478;2023-07-29T10:06:46;100309.00;;;24.90
12854;BMP180;6495;51.808;7.478;2023-07-29T10:09:15;100309.00;;;25.00
12854;BMP180;6495;51.808;7.478;2023-07-29T10:11:44;100311.00;;;25.00
12854;BMP180;6495;51.808;7.478;2023-07-29T10:14:15;100322.00;;;24.90
12854;BMP180;6495;51.808;7.478;2023-07-29T10:16:46;100316.00;;;24.80
12854;BMP180;6495;51.808;7.478;2023-07-29T10:19:15;100323.00;;;24.80
12854;BMP180;6495;51.808;7.478;2023-07-29T10:21:48;100323.00;;;24.70
12854;BMP180;6495;51.808;7.478;2023-07-29T10:24:22;100310.00;;;24.70
12854;BMP180;6495;51.808;7.478;2023-07-29T10:26:58;100317.00;;;24.70
12854;BMP180;6495;51.808;7.478;2023-07-29T10:29:31;100325.00;;;24.80
12854;BMP180;6495;51.808;7.478;2023-07-29T10:32:02;100335.00;;;24.80
12854;BMP180;6495;51.808;7.478;2023-07-29T10:34:33;100331.00;;;24.70
12854;BMP180;6495;51.808;7.478;2023-07-29T10:37:03;100331.00;;;24.80
12854;BMP180;6495;51.808;7.478;2023-07-29T10:39:38;100325.00;;;24.80
12854;BMP180;6495;51.808;7.478;2023-07-29T10:42:07;100336.00;;;24.80
12854;BMP180;6495;51.808;7.478;2023-07-29T10:44:51;100320.00;;;24.90
12854;BMP180;6495;51.808;7.478;2023-07-29T10:47:23;100316.00;;;24.90
12854;BMP180;6495;51.808;7.478;2023-07-29T10:49:54;100305.00;;;24.90
12854;BMP180;6495;51.808;7.478;2023-07-29T10:52:41;100303.00;;;25.00
12854;BMP180;6495;51.808;7.478;2023-07-29T10:55:28;100308.00;;;25.10
12854;BMP180;6495;51.808;7.478;2023-07-29T10:58:10;100299.00;;;25.10
12854;BMP180;6495;51.808;7.478;2023-07-29T11:00:42;100295.00;;;25.20
12854;BMP180;6495;51.808;7.478;2023-07-29T11:03:13;100294.00;;;25.30
12854;BMP180;6495;51.808;7.478;2023-07-29T11:05:48;100281.00;;;25.40
12854;BMP180;6495;51.808;7.478;2023-07-29T11:08:22;100293.00;;;25.50
12854;BMP180;6495;51.808;7.478;2023-07-29T11:11:06;100292.00;;;25.70
12854;BMP180;6495;51.808;7.478;2023-07-29T11:13:36;100295.00;;;25.70
12854;BMP180;6495;51.808;7.478;2023-07-29T11:16:09;100290.00;;;25.80
12854;BMP180;6495;51.808;7.478;2023-07-29T11:18:38;100296.00;;;25.90
12854;BMP180;6495;51.808;7.478;2023-07-29T11:21:10;100300.00;;;26.00
12854;BMP180;6495;51.808;7.478;2023-07-29T11:23:38;100291.00;;;26.00
12854;BMP180;6495;51.808;7.478;2023-07-29T11:26:07;100300.00;;;26.10
12854;BMP180;6495;51.808;7.478;2023-07-29T11:28:39;100305.00;;;26.10
12854;BMP180;6495;51.808;7.478;2023-07-29T11:31:10;100297.00;;;26.20
12854;BMP180;6495;51.808;7.478;2023-07-29T11:33:39;100288.00;;;26.20
12854;BMP180;6495;51.808;7.478;2023-07-29T11:36:17;100300.00;;;26.20
12854;BMP180;6495;51.808;7.478;2023-07-29T11:38:46;100307.00;;;26.20
12854;BMP180;6495;51.808;7.478;2023-07-29T11:41:20;100302.00;;;26.10
12854;BMP180;6495;51.808;7.478;2023-07-29T11:43:49;100319.00;;;26.10
12854;BMP180;6495;51.808;7.478;2023-07-29T11:46:22;100313.00;;;26.10
12854;BMP180;6495;51.808;7.478;2023-07-29T11:48:53;100309.00;;;26.20
12854;BMP180;6495;51.808;7.478;2023-07-29T11:51:22;100310.00;;;26.30
12854;BMP180;6495;51.808;7.478;2023-07-29T11:53:51;100306.00;;;26.30
12854;BMP180;6495;51.808;7.478;2023-07-29T11:56:20;100303.00;;;26.30
12854;BMP180;6495;51.808;7.478;2023-07-29T11:58:49;100307.00;;;26.30
12854;BMP180;6495;51.808;7.478;2023-07-29T12:01:17;100307.00;;;26.40
12854;BMP180;6495;51.808;7.478;2023-07-29T12:03:47;100299.00;;;26.50
12854;BMP180;6495;51.808;7.478;2023-07-29T12:06:16;100299.00;;;26.60
12854;BMP180;6495;51.808;7.478;2023-07-29T12:08:45;100295.00;;;26.60
12854;BMP180;6495;51.808;7.478;2023-07-29T12:11:14;100300.00;;;26.70
12854;BMP180;6495;51.808;7.478;2023-07-29T12:13:43;100289.00;;;26.70
12854;BMP180;6495;51.808;7.478;2023-07-29T12:16:16;100290.00;;;26.70
12854;BMP180;6495;51.808;7.478;2023-07-29T12:18:47;100285.00;;;26.70
12854;BMP180;6495;51.808;7.478;2023-07-29T12:21:16;100291.00;;;26.60
12854;BMP180;6495;51.808;7.478;2023-07-29T12:23:45;100288.00;;;26.60
12854;BMP180;6495;51.808;7.478;2023-07-29T12:26:13;100282.00;;;26.60
12854;BMP180;6495;51.808;7.478;2023-07-29T12:28:46;100276.00;;;26.70
12854;BMP180;6495;51.808;7.478;2023-07-29T12:31:14;100290.00;;;26.70
12854;BMP180;6495;51.808;7.478;2023-07-29T12:33:43;100286.00;;;26.70
12854;BMP180;6495;51.808;7.478;2023-07-29T12:36:12;100287.00;;;26.80
12854;BMP180;6495;51.808;7.478;2023-07-29T12:38:43;100282.00;;;26.80
12854;BMP180;6495;51.808;7.478;2023-07-29T12:41:11;100295.00;;;26.80
12854;BMP180;6495;51.808;7.478;2023-07-29T12:43:39;100291.00;;;26.80
12854;BMP180;6495;51.808;7.478;2023-07-29T12:46:07;100286.00;;;26.80
12854;BMP180;6495;51.808;7.478;2023-07-29T12:48:35;100290.00;;;26.80
12854;BMP180;6495;51.808;7.478;2023-07-29T12:51:03;100297.00;;;26.90
12854;BMP180;6495;51.808;7.478;2023-07-29T12:53:33;100300.00;;;26.90
12854;BMP180;6495;51.808;7.478;2023-07-29T12:56:01;100292.00;;;27.00
12854;BMP180;6495;51.808;7.478;2023-07-29T12:58:29;100296.00;;;27.00
12854;BMP180;6495;51.808;7.478;2023-07-29T13:00:57;100299.00;;;26.90
12854;BMP180;6495;51.808;7.478;2023-07-29T13:03:26;100292.00;;;26.90
12854;BMP180;6495;51.808;7.478;2023-07-29T13:05:54;100293.00;;;26.90
12854;BMP180;6495;51.808;7.478;2023-07-29T13:08:22;100294.00;;;26.90
12854;BMP180;6495;51.808;7.478;2023-07-29T13:10:52;100296.00;;;26.90
12854;BMP180;6495;51.808;7.478;2023-07-29T13:13:20;100295.00;;;26.90
12854;BMP180;6495;51.808;7.478;2023-07-29T13:15:48;100302.00;;;27.00
12854;BMP180;6495;51.808;7.478;2023-07-29T13:18:17;100298.00;;;27.10
12854;BMP180;6495;51.808;7.478;2023-07-29T13:20:45;100303.00;;;27.10
12854;BMP180;6495;51.808;7.478;2023-07-29T13:23:13;100301.00;;;27.20
12854;BMP180;6495;51.808;7.478;2023-07-29T13:25:40;100296.00;;;27.40
12854;BMP180;6495;51.808;7.478;2023-07-29T13:28:11;100292.00;;;27.30
12854;BMP180;6495;51.808;7.478;2023-07-29T13:30:40;100294.00;;;27.30
12854;BMP180;6495;51.808;7.478;2023-07-29T13:33:09;100292.00;;;27.30
12854;BMP180;6495;51.808;7.478;2023-07-29T13:35:37;100297.00;;;27.20
12854;BMP180;6495;51.808;7.478;2023-07-29T13:38:05;100291.00;;;27.20
12854;BMP180;6495;51.808;7.478;2023-07-29T13:40:35;100288.00;;;27.20
12854;BMP180;6495;51.808;7.478;2023-07-29T13:43:04;100295.00;;;27.20
12854;BMP180;6495;51.808;7.478;2023-07-29T13:45:35;100289.00;;;27.20
12854;BMP180;6495;51.808;7.478;2023-07-29T13:48:04;100306.00;;;27.20
12854;BMP180;6495;51.808;7.478;2023-07-29T13:50:32;100307.00;;;27.10
12854;BMP180;6495;51.808;7.478;2023-07-29T13:53:00;100306.00;;;27.00
12854;BMP180;6495;51.808;7.478;2023-07-29T13:55:29;100312.00;;;26.90
12854;BMP180;6495;51.808;7.478;2023-07-29T13:57:57;100308.00;;;26.80
12854;BMP180;6495;51.808;7.478;2023-07-29T14:00:25;100308.00;;;26.70
12854;BMP180;6495;51.808;7.478;2023-07-29T14:02:55;100321.00;;;26.60
12854;BMP180;6495;51.808;7.478;2023-07-29T14:05:23;100319.00;;;26.60
12854;BMP180;6495;51.808;7.478;2023-07-29T14:07:51;100324.00;;;26.50
12854;BMP180;6495;51.808;7.478;2023-07-29T14:10:19;100344.00;;;26.50
12854;BMP180;6495;51.808;7.478;2023-07-29T14:12:48;100354.00;;;26.40
12854;BMP180;6495;51.808;7.478;2023-07-29T14:15:16;100385.00;;;26.30
12854;BMP180;6495;51.808;7.478;2023-07-29T14:17:45;100411.00;;;26.10
12854;BMP180;6495;51.808;7.478;2023-07-29T14:20:15;100446.00;;;25.80
12854;BMP180;6495;51.808;7.478;2023-07-29T14:22:44;100444.00;;;25.40